Waunakee, Wisconsin
Current Conditions -  °F | °C
As of 8:55 PM on Monday 20 Oct 2014 (Local Time) from KC29 Reporting Station
Scattered Clouds Scattered Clouds  
Wind Chill: 52°   Ceiling: Unl
Heat Index: 52°   Visibility: 10mi
Dew Point: 39°   Wind: 9mph
Humidity: 61%   Direction: 30°NNE
Pressure: 30.02"   Gusts: NA
Location:  43.19°N, 89.46°W
Report Text: KC29 210155Z AUTO 03008KT 10SM SCT047 11/04 A3002 RMK AO1 T01130041
Loading
Personal Weather Stations






























Interactive Weather Map New forecast layout! Learn more

10-Day Weather Forecast

Advertisements
Track Severe Weather on mobile